createdAt,value
2023-01-11T00:02:09.091Z,14.52
2023-01-11T00:04:35.560Z,16.08
2023-01-11T00:07:02.003Z,17.73
2023-01-11T00:09:28.396Z,13.10
2023-01-11T00:11:55.239Z,14.95
2023-01-11T00:14:21.750Z,11.52
2023-01-11T00:16:48.130Z,10.07
2023-01-11T00:19:14.616Z,16.42
2023-01-11T00:21:41.026Z,16.08
2023-01-11T00:24:07.559Z,17.95
2023-01-11T00:26:34.007Z,13.82
2023-01-11T00:29:00.418Z,14.27
2023-01-11T00:31:27.011Z,14.85
2023-01-11T00:33:53.512Z,10.27
2023-01-11T00:36:19.939Z,10.65
2023-01-11T00:38:53.684Z,14.10
2023-01-11T00:41:42.188Z,10.93
2023-01-11T00:44:30.409Z,15.13
2023-01-11T00:47:16.111Z,16.48
2023-01-11T00:49:43.143Z,10.00
2023-01-11T00:52:10.121Z,15.43
2023-01-11T00:54:40.860Z,9.27
2023-01-11T00:57:07.905Z,16.88
2023-01-11T00:59:35.260Z,20.48
2023-01-11T01:02:02.087Z,17.40
2023-01-11T01:04:28.520Z,11.50
2023-01-11T01:06:55.010Z,20.70
2023-01-11T01:09:21.503Z,11.40
2023-01-11T01:11:47.932Z,19.52
2023-01-11T01:14:30.576Z,13.07
2023-01-11T01:17:02.532Z,11.80
2023-01-11T01:19:31.503Z,19.63
2023-01-11T01:21:59.705Z,18.08
2023-01-11T01:24:28.772Z,17.45
2023-01-11T01:26:56.382Z,9.88
2023-01-11T01:29:22.871Z,12.65
2023-01-11T01:31:49.275Z,12.65
2023-01-11T01:34:15.866Z,18.00
2023-01-11T01:36:42.532Z,11.40
2023-01-11T01:39:11.460Z,11.20
2023-01-11T01:41:37.923Z,11.18
2023-01-11T01:44:43.245Z,20.67
2023-01-11T01:47:10.382Z,12.25
2023-01-11T01:49:37.507Z,13.13
2023-01-11T01:52:04.231Z,18.02
2023-01-11T01:54:35.824Z,11.63
2023-01-11T01:57:09.288Z,14.25
2023-01-11T01:59:36.026Z,8.20
2023-01-11T02:02:02.529Z,14.50
2023-01-11T02:04:30.795Z,10.80
2023-01-11T02:07:01.937Z,11.77
2023-01-11T02:09:38.777Z,17.00
2023-01-11T02:12:06.787Z,14.07
2023-01-11T02:14:35.586Z,14.55
2023-01-11T02:17:23.458Z,12.25
2023-01-11T02:20:20.242Z,8.73
2023-01-11T02:22:55.579Z,10.10
2023-01-11T02:25:58.978Z,15.00
2023-01-11T02:28:38.949Z,14.07
2023-01-11T02:31:34.417Z,9.82
2023-01-11T02:34:24.579Z,14.00
2023-01-11T02:37:15.788Z,16.15
2023-01-11T02:39:58.631Z,8.63
2023-01-11T02:43:09.785Z,12.52
2023-01-11T02:45:58.308Z,10.13
2023-01-11T02:48:43.530Z,12.45
2023-01-11T02:51:15.807Z,16.40
2023-01-11T02:54:01.376Z,15.32
2023-01-11T02:56:31.972Z,16.90
2023-01-11T02:59:00.939Z,9.77
2023-01-11T03:01:27.513Z,17.20
2023-01-11T03:03:54.612Z,10.50
2023-01-11T03:06:26.152Z,11.48
2023-01-11T03:08:52.504Z,9.48
2023-01-11T03:12:11.623Z,12.07
2023-01-11T03:14:49.603Z,19.23
2023-01-11T03:17:58.808Z,9.20
2023-01-11T03:20:36.707Z,9.25
2023-01-11T04:51:54.333Z,7.60
2023-01-11T04:54:20.771Z,6.57
2023-01-11T04:56:47.160Z,6.90
2023-01-11T04:59:13.986Z,10.77
2023-01-11T05:01:40.388Z,6.40
2023-01-11T05:04:07.036Z,8.68
2023-01-11T05:06:33.707Z,6.47
2023-01-11T05:09:00.163Z,13.45
2023-01-11T05:11:26.568Z,6.20
2023-01-11T05:13:53.038Z,3.38
2023-01-11T05:16:24.308Z,8.30
2023-01-11T05:18:55.906Z,6.57
2023-01-11T05:21:25.550Z,9.95
2023-01-11T05:23:53.366Z,5.88
2023-01-11T05:26:23.463Z,8.07
2023-01-11T05:28:51.218Z,7.97
2023-01-11T05:31:18.650Z,8.07
2023-01-11T05:33:45.328Z,6.18
2023-01-11T05:36:14.364Z,5.90
2023-01-11T05:38:40.818Z,6.53
2023-01-11T05:41:09.788Z,7.13
2023-01-11T05:43:56.487Z,6.30
2023-01-11T05:46:23.312Z,5.78
2023-01-11T05:48:50.197Z,6.30
2023-01-11T05:51:17.068Z,8.80
2023-01-11T05:53:43.913Z,5.32
2023-01-11T05:56:10.314Z,5.85
2023-01-11T05:58:36.762Z,6.63
2023-01-11T06:01:03.834Z,6.88
2023-01-11T06:03:30.247Z,5.88
2023-01-11T06:05:59.196Z,6.25
2023-01-11T06:08:26.146Z,5.47
2023-01-11T06:10:57.015Z,6.03
2023-01-11T06:13:27.571Z,5.13
2023-01-11T06:15:58.068Z,3.58
2023-01-11T06:18:24.477Z,7.68
2023-01-11T06:20:51.868Z,7.60
2023-01-11T06:23:18.484Z,6.00
2023-01-11T06:25:45.463Z,4.80
2023-01-11T06:28:12.541Z,6.25
2023-01-11T06:30:39.246Z,5.90
2023-01-11T06:33:08.662Z,9.65
2023-01-11T06:35:40.427Z,4.85
2023-01-11T06:38:08.798Z,10.10
2023-01-11T06:40:35.700Z,6.05
2023-01-11T06:43:02.202Z,6.80
2023-01-11T06:45:28.739Z,6.03
2023-01-11T06:47:55.189Z,5.97
2023-01-11T06:50:21.682Z,8.13
2023-01-11T06:52:55.560Z,7.60
2023-01-11T06:55:23.774Z,9.75
2023-01-11T06:57:50.379Z,10.50
2023-01-11T07:00:17.742Z,5.95
2023-01-11T07:02:45.448Z,7.03
2023-01-11T07:05:12.793Z,8.52
2023-01-11T07:07:40.177Z,6.80
2023-01-11T07:10:09.158Z,8.30
2023-01-11T07:12:36.032Z,3.90
2023-01-11T07:15:06.561Z,6.05
2023-01-11T07:17:33.463Z,5.55
2023-01-11T07:20:00.696Z,3.88
2023-01-11T07:22:28.286Z,4.18
2023-01-11T07:24:54.882Z,6.35
2023-01-11T07:27:21.259Z,3.42
2023-01-11T07:29:47.660Z,6.55
2023-01-11T07:32:14.380Z,7.20
2023-01-11T07:34:40.808Z,3.47
2023-01-11T07:37:09.558Z,5.80
2023-01-11T07:39:55.138Z,5.07
2023-01-11T07:42:40.157Z,5.65
2023-01-11T07:45:07.109Z,7.78
2023-01-11T07:47:33.499Z,9.95
2023-01-11T07:49:59.901Z,4.45
2023-01-11T07:52:26.285Z,7.53
2023-01-11T07:54:52.705Z,4.45
2023-01-11T07:57:19.124Z,7.70
2023-01-11T07:59:45.584Z,5.40
2023-01-11T08:02:12.119Z,4.50
2023-01-11T08:04:38.531Z,3.38
2023-01-11T08:07:05.019Z,7.50
2023-01-11T08:09:31.429Z,3.15
2023-01-11T08:12:16.541Z,7.28
2023-01-11T08:14:43.001Z,4.53
2023-01-11T08:17:13.409Z,3.97
2023-01-11T08:19:40.307Z,8.65
2023-01-11T08:22:06.846Z,5.97
2023-01-11T08:24:34.749Z,3.83
2023-01-11T08:27:02.320Z,4.15
2023-01-11T08:29:28.732Z,9.15
2023-01-11T08:31:55.378Z,4.35
2023-01-11T08:34:21.823Z,7.25
2023-01-11T08:36:48.215Z,5.82
2023-01-11T08:39:14.729Z,6.63
2023-01-11T08:41:41.146Z,7.60
2023-01-11T08:44:09.290Z,6.72
2023-01-11T08:46:37.871Z,6.05
2023-01-11T08:49:11.095Z,12.65
2023-01-11T08:51:41.130Z,10.05
2023-01-11T08:54:11.694Z,7.20
2023-01-11T08:56:38.349Z,4.80
2023-01-11T08:59:06.189Z,5.20
2023-01-11T09:01:33.564Z,3.28
2023-01-11T09:04:00.027Z,5.97
2023-01-11T09:06:26.463Z,4.07
2023-01-11T09:08:52.938Z,8.38
2023-01-11T09:11:37.991Z,6.03
2023-01-11T09:14:04.477Z,8.35
2023-01-11T09:16:31.317Z,7.15
2023-01-11T09:18:57.751Z,6.50
2023-01-11T09:21:24.357Z,3.42
2023-01-11T09:23:50.811Z,6.47
2023-01-11T09:26:17.242Z,4.90
2023-01-11T09:28:43.682Z,5.70
2023-01-11T09:31:10.153Z,4.97
2023-01-11T09:33:38.422Z,7.55
2023-01-11T09:36:05.501Z,4.15
2023-01-11T09:38:33.917Z,5.07
2023-01-11T09:41:23.150Z,6.57
2023-01-11T09:44:01.677Z,4.75
2023-01-11T09:46:29.170Z,5.18
2023-01-11T09:48:59.525Z,4.70
2023-01-11T09:51:37.437Z,6.15
2023-01-11T09:54:07.722Z,5.10
2023-01-11T09:56:43.814Z,7.93
2023-01-11T09:59:20.737Z,9.85
2023-01-11T10:02:01.591Z,8.48
2023-01-11T10:04:47.422Z,6.60
2023-01-11T10:07:24.932Z,6.30
2023-01-11T10:18:37.061Z,5.50
2023-01-11T10:22:32.607Z,5.88
2023-01-11T10:25:18.696Z,5.15
2023-01-11T10:28:10.836Z,5.88
2023-01-11T10:31:03.497Z,8.93
2023-01-11T10:34:06.245Z,4.25
2023-01-11T10:36:59.421Z,4.65
2023-01-11T10:39:43.497Z,3.33
2023-01-11T10:42:25.165Z,5.28
2023-01-11T10:45:02.580Z,6.30
2023-01-11T10:47:39.118Z,8.10
2023-01-11T10:50:19.091Z,6.40
2023-01-11T10:52:52.029Z,6.90
2023-01-11T10:55:28.544Z,8.98
2023-01-11T10:58:07.018Z,2.97
2023-01-11T11:00:41.757Z,3.22
2023-01-11T11:03:24.444Z,4.72
2023-01-11T11:06:06.197Z,6.10
2023-01-11T11:08:51.195Z,7.88
2023-01-11T11:11:36.746Z,6.53
2023-01-11T11:14:20.215Z,8.07
2023-01-11T11:17:25.757Z,3.97
2023-01-11T11:19:53.207Z,5.25
2023-01-11T11:22:20.928Z,5.63
2023-01-11T11:24:51.945Z,2.80
2023-01-11T11:29:54.731Z,5.93
2023-01-11T11:32:26.780Z,5.80
2023-01-11T11:34:53.874Z,4.25
2023-01-11T11:37:31.511Z,8.00
2023-01-11T11:39:57.997Z,3.53
2023-01-11T11:42:24.734Z,2.85
2023-01-11T11:45:09.239Z,4.28
2023-01-11T11:47:36.714Z,4.57
2023-01-11T11:50:43.058Z,5.15
2023-01-11T11:53:25.261Z,4.32
2023-01-11T11:55:53.207Z,6.07
2023-01-11T11:58:23.878Z,6.45
2023-01-11T12:00:52.166Z,4.45
2023-01-11T12:03:23.526Z,4.53
2023-01-11T12:05:55.471Z,4.82
2023-01-11T12:08:24.579Z,3.42
2023-01-11T12:10:55.201Z,3.40
2023-01-11T12:13:27.748Z,6.43
2023-01-11T12:16:02.979Z,4.32
2023-01-11T12:18:37.136Z,6.25
2023-01-11T12:21:30.152Z,3.35
2023-01-11T12:24:18.365Z,3.75
2023-01-11T12:26:54.584Z,6.60
2023-01-11T12:29:35.878Z,2.22
2023-01-11T12:35:05.850Z,4.05
2023-01-11T12:38:04.538Z,3.80
2023-01-11T12:41:01.535Z,5.95
2023-01-11T12:43:41.521Z,3.28
2023-01-11T12:46:40.725Z,2.90
2023-01-11T12:49:19.449Z,5.03
2023-01-11T12:51:51.630Z,1.85
2023-01-11T12:55:01.714Z,4.30
2023-01-11T12:57:52.073Z,2.58
2023-01-11T13:00:31.950Z,2.13
2023-01-11T13:03:33.333Z,2.38
2023-01-11T13:09:16.821Z,5.10
2023-01-11T13:12:03.925Z,2.63
2023-01-11T13:14:52.243Z,1.65
2023-01-11T13:17:25.436Z,1.90
2023-01-11T13:20:04.076Z,3.15
2023-01-11T13:22:36.392Z,3.58
2023-01-11T13:25:12.412Z,1.98
2023-01-11T13:27:40.049Z,5.15
2023-01-11T13:30:12.446Z,3.15
2023-01-11T13:32:42.892Z,1.95
2023-01-11T13:35:19.123Z,1.98
2023-01-11T13:37:53.268Z,2.58
2023-01-11T13:40:24.255Z,5.35
2023-01-11T13:45:30.157Z,2.65
2023-01-11T13:48:05.767Z,5.38
2023-01-11T13:50:41.937Z,3.60
2023-01-11T13:53:22.505Z,5.25
2023-01-11T13:55:57.477Z,1.90
2023-01-11T13:58:30.287Z,4.53
2023-01-11T14:01:08.155Z,4.82
2023-01-11T14:04:00.505Z,2.13
2023-01-11T14:06:53.128Z,2.65
2023-01-11T14:09:42.643Z,1.75
2023-01-11T14:12:29.721Z,2.15
2023-01-11T14:15:17.497Z,2.42
2023-01-11T14:18:11.189Z,2.95
2023-01-11T14:20:53.797Z,2.42
2023-01-11T14:23:25.165Z,2.20
2023-01-11T14:26:12.098Z,4.03
2023-01-11T14:28:51.531Z,3.65
2023-01-11T14:31:26.995Z,4.40
2023-01-11T14:34:20.620Z,4.40
2023-01-11T14:37:14.371Z,2.70
2023-01-11T14:40:01.142Z,5.13
2023-01-11T14:42:38.096Z,3.72
2023-01-11T14:45:24.025Z,3.40
2023-01-11T14:47:54.670Z,2.00
2023-01-11T14:50:41.598Z,2.75
2023-01-11T14:53:15.501Z,4.22
2023-01-11T14:55:45.187Z,4.13
2023-01-11T14:58:32.331Z,3.08
2023-01-11T15:00:58.671Z,2.83
2023-01-11T15:03:34.995Z,2.42
2023-01-11T15:06:10.494Z,2.15
2023-01-11T15:08:47.687Z,3.83
2023-01-11T15:11:30.013Z,3.17
2023-01-11T15:13:59.335Z,2.03
2023-01-11T15:16:47.571Z,3.08
2023-01-11T15:19:29.236Z,2.60
2023-01-11T15:21:56.869Z,2.40
2023-01-11T15:24:29.959Z,5.20
2023-01-11T15:26:59.578Z,5.85
2023-01-11T15:29:29.410Z,2.90
2023-01-11T15:32:01.866Z,3.80
2023-01-11T15:34:41.339Z,2.75
2023-01-11T15:37:18.960Z,2.20
2023-01-11T15:39:57.180Z,3.67
2023-01-11T15:42:36.503Z,2.90
2023-01-11T15:45:32.138Z,6.63
2023-01-11T15:48:18.498Z,3.85
2023-01-11T15:51:17.463Z,3.58
2023-01-11T15:53:55.982Z,2.38
2023-01-11T15:56:43.745Z,3.63
2023-01-11T15:59:58.175Z,5.13
2023-01-11T16:02:47.186Z,2.30
2023-01-11T16:05:21.945Z,3.55
2023-01-11T16:08:10.461Z,3.92
2023-01-11T16:11:01.189Z,3.25
2023-01-11T16:13:53.614Z,3.53
2023-01-11T16:16:24.404Z,3.33
2023-01-11T16:18:58.042Z,3.10
2023-01-11T16:21:38.773Z,5.03
2023-01-11T16:24:14.974Z,3.55
2023-01-11T16:26:42.056Z,2.65
2023-01-11T16:29:24.704Z,4.63
2023-01-11T16:32:32.782Z,3.35
2023-01-11T16:35:01.266Z,5.38
2023-01-11T16:37:33.644Z,6.15
2023-01-11T16:40:08.411Z,5.45
2023-01-11T16:42:41.193Z,5.50
2023-01-11T16:45:13.574Z,5.28
2023-01-11T16:47:40.056Z,5.72
2023-01-11T16:50:15.357Z,3.30
2023-01-11T16:52:53.709Z,4.65
2023-01-11T16:55:24.425Z,3.38
2023-01-11T16:57:58.334Z,3.38
2023-01-11T17:00:35.960Z,6.47
2023-01-11T17:03:15.967Z,4.47
2023-01-11T17:05:42.418Z,4.10
2023-01-11T17:08:50.290Z,3.15
2023-01-11T17:11:39.618Z,6.85
2023-01-11T17:14:39.927Z,4.18
2023-01-11T17:17:09.350Z,4.95
2023-01-11T17:19:42.983Z,5.45
2023-01-11T17:22:43.677Z,5.45
2023-01-11T17:25:44.881Z,7.40
2023-01-11T17:28:18.421Z,6.05
2023-01-11T17:30:47.859Z,8.05
2023-01-11T17:33:31.519Z,5.75
2023-01-11T17:35:58.996Z,5.30
2023-01-11T17:38:27.924Z,6.72
2023-01-11T17:40:58.526Z,9.07
2023-01-11T17:43:48.108Z,7.63
2023-01-11T17:46:19.279Z,6.95
2023-01-11T17:48:57.111Z,7.50
2023-01-11T17:51:29.461Z,7.65
2023-01-11T17:53:55.891Z,9.85
2023-01-11T17:56:37.957Z,9.38
2023-01-11T17:59:18.529Z,8.82
2023-01-11T18:01:57.627Z,11.68
2023-01-11T18:04:25.874Z,11.95
2023-01-11T18:06:55.065Z,9.82
2023-01-11T18:09:30.521Z,9.82
2023-01-11T18:12:13.751Z,11.10
2023-01-11T18:14:48.608Z,8.90
2023-01-11T18:17:33.077Z,8.73
2023-01-11T18:20:00.115Z,11.10
2023-01-11T18:22:40.582Z,8.15
2023-01-11T18:25:20.139Z,8.82
2023-01-11T18:27:46.967Z,11.50
2023-01-11T18:30:31.727Z,11.30
2023-01-11T18:33:02.173Z,11.93
2023-01-11T18:35:29.426Z,13.43
2023-01-11T18:37:55.978Z,11.40
2023-01-11T18:40:22.609Z,9.75
2023-01-11T18:42:52.357Z,14.15
2023-01-11T18:45:18.848Z,11.65
2023-01-11T18:47:45.253Z,13.82
2023-01-11T18:50:14.493Z,13.27
2023-01-11T18:52:40.900Z,14.75
2023-01-11T18:55:10.977Z,14.52
2023-01-11T18:57:37.446Z,18.10
2023-01-11T19:00:04.114Z,14.52
2023-01-11T19:02:42.394Z,13.38
2023-01-11T19:05:15.299Z,14.45
2023-01-11T19:07:42.208Z,11.88
2023-01-11T19:10:10.740Z,17.20
2023-01-11T19:12:37.151Z,17.77
2023-01-11T19:15:03.812Z,18.48
2023-01-11T19:17:31.453Z,15.98
2023-01-11T19:19:57.871Z,17.98
2023-01-11T19:22:26.468Z,20.83
2023-01-11T19:24:53.920Z,14.07
2023-01-11T19:27:21.034Z,15.38
2023-01-11T19:29:47.445Z,17.23
2023-01-11T19:32:15.758Z,13.52
2023-01-11T19:34:42.730Z,16.50
2023-01-11T19:37:09.114Z,18.95
2023-01-11T19:39:36.089Z,15.40
2023-01-11T19:42:03.051Z,16.30
2023-01-11T19:44:32.311Z,13.88
2023-01-11T19:47:10.300Z,16.85
2023-01-11T19:49:38.138Z,15.82
2023-01-11T19:52:05.532Z,23.55
2023-01-11T19:54:31.956Z,19.67
2023-01-11T19:56:58.373Z,11.10
2023-01-11T19:59:24.768Z,18.48
2023-01-11T20:01:51.203Z,18.75
2023-01-11T20:04:17.773Z,24.25
2023-01-11T20:06:52.079Z,16.30
2023-01-11T20:09:19.476Z,15.98
2023-01-11T20:11:46.600Z,11.82
2023-01-11T20:14:13.008Z,18.27
2023-01-11T20:16:39.421Z,23.40
2023-01-11T20:19:05.888Z,19.85
2023-01-11T20:21:34.220Z,18.17
2023-01-11T20:24:01.920Z,18.45
2023-01-11T20:26:30.546Z,21.25
2023-01-11T20:28:58.029Z,13.35
2023-01-11T20:31:28.041Z,26.25
2023-01-11T20:33:55.986Z,16.10
2023-01-11T20:36:23.099Z,19.83
2023-01-11T20:38:49.931Z,19.58
2023-01-11T20:41:37.477Z,16.42
2023-01-11T20:44:05.794Z,14.15
2023-01-11T20:46:33.256Z,15.40
2023-01-11T20:49:00.188Z,18.70
2023-01-11T20:51:27.026Z,17.52
2023-01-11T20:53:53.469Z,20.05
2023-01-11T20:56:20.020Z,20.25
2023-01-11T20:58:48.113Z,19.02
2023-01-11T21:01:27.215Z,22.35
2023-01-11T21:04:04.951Z,20.33
2023-01-11T21:06:32.912Z,21.67
2023-01-11T21:09:01.075Z,21.50
2023-01-11T21:11:28.643Z,18.50
2023-01-11T21:13:56.094Z,18.40
2023-01-11T21:16:29.362Z,17.20
2023-01-11T21:19:00.552Z,18.30
2023-01-11T21:21:29.581Z,20.02
2023-01-11T21:23:58.426Z,21.80
2023-01-11T21:26:26.281Z,22.73
2023-01-11T21:28:55.636Z,31.38
2023-01-11T21:31:22.815Z,20.33
2023-01-11T21:33:49.964Z,16.67
2023-01-11T21:36:19.006Z,25.80
2023-01-11T21:38:45.488Z,13.88
2023-01-11T21:41:18.082Z,23.30
2023-01-11T21:43:45.319Z,13.40
2023-01-11T21:46:12.750Z,22.67
2023-01-11T21:48:39.592Z,22.00
2023-01-11T21:51:09.921Z,20.25
2023-01-11T21:53:36.683Z,18.87
2023-01-11T21:56:04.945Z,28.08
2023-01-11T21:58:31.393Z,26.50
2023-01-11T22:00:58.043Z,18.13
2023-01-11T22:03:27.045Z,25.58
2023-01-11T22:05:54.584Z,22.45
2023-01-11T22:08:21.227Z,20.48
2023-01-11T22:11:01.115Z,20.02
2023-01-11T22:13:32.150Z,18.73
2023-01-11T22:18:33.671Z,30.45
2023-01-11T22:21:07.013Z,21.38
2023-01-11T22:23:33.661Z,21.63
2023-01-11T22:26:34.676Z,21.40
2023-01-11T22:29:14.579Z,17.50
2023-01-11T22:31:50.757Z,19.58
2023-01-11T22:34:18.245Z,20.98
2023-01-11T22:36:45.312Z,24.50
2023-01-11T22:39:12.848Z,18.33
2023-01-11T22:41:40.620Z,21.15
2023-01-11T22:44:08.280Z,20.63
2023-01-11T22:46:34.755Z,20.85
2023-01-11T22:49:01.254Z,21.98
2023-01-11T22:51:27.792Z,30.25
2023-01-11T22:53:55.742Z,19.25
2023-01-11T22:56:25.526Z,21.70
2023-01-11T22:58:55.972Z,23.40
2023-01-11T23:01:26.843Z,8.57
2023-01-11T23:03:54.511Z,19.25
2023-01-11T23:06:26.930Z,15.52
2023-01-11T23:08:53.966Z,16.95
2023-01-11T23:11:45.337Z,12.50
2023-01-11T23:14:14.368Z,20.33
2023-01-11T23:16:41.451Z,18.80
2023-01-11T23:19:08.926Z,18.88
2023-01-11T23:21:36.156Z,20.45
2023-01-11T23:24:03.679Z,24.58
2023-01-11T23:26:30.917Z,13.43
2023-01-11T23:28:57.455Z,14.48
2023-01-11T23:31:25.672Z,18.63
2023-01-11T23:33:56.932Z,13.98
2023-01-11T23:36:26.947Z,18.83
2023-01-11T23:38:56.290Z,20.35
2023-01-11T23:41:42.004Z,21.40
2023-01-11T23:44:11.377Z,16.40
2023-01-11T23:46:57.423Z,14.52
2023-01-11T23:49:26.697Z,14.95
2023-01-11T23:51:54.027Z,16.23
2023-01-11T23:54:20.942Z,17.58
2023-01-11T23:56:47.626Z,10.20
2023-01-11T23:59:14.821Z,20.73
